Time;durP1;ratioP1;P1;durP2;ratioP2;P2;SDS_P1;SDS_P2;PMS_P1;PMS_P2;Temp;Humidity;BMP_temperature;BMP_pressure;BME280_temperature;BME280_humidity;BME280_pressure;Samples;Min_cycle;Max_cycle;Signal;HPM_P1;HPM_P2
2023/05/21 00:01:04;;;;;;;10.43;5.28;;;;;;;12.06;100.00;100137.88;5088479;28;20046;-40
2023/05/21 00:03:31;;;;;;;8.18;5.00;;;;;;;12.04;100.00;100131.88;5088610;28;20035;-38
2023/05/21 00:05:57;;;;;;;10.05;5.20;;;;;;;12.06;100.00;100131.81;5086203;28;20039;-39
2023/05/21 00:08:23;;;;;;;6.10;4.68;;;;;;;12.08;100.00;100133.50;5088821;28;20063;-39
2023/05/21 00:10:49;;;;;;;8.15;5.03;;;;;;;12.10;100.00;100125.59;5087016;28;20440;-39
2023/05/21 00:13:15;;;;;;;8.95;4.65;;;;;;;11.97;100.00;100104.31;5088087;28;20036;-39
2023/05/21 00:15:41;;;;;;;9.05;4.85;;;;;;;12.06;100.00;100114.44;5070720;28;20097;-39
2023/05/21 00:18:07;;;;;;;8.55;4.68;;;;;;;12.14;100.00;100124.63;5088431;28;20032;-38
2023/05/21 00:20:34;;;;;;;11.77;4.30;;;;;;;12.15;100.00;100127.16;5087715;28;20048;-39
2023/05/21 00:23:03;;;;;;;8.35;5.15;;;;;;;12.03;100.00;100096.31;5084821;28;20085;-39
2023/05/21 00:25:29;;;;;;;7.97;4.63;;;;;;;12.07;100.00;100105.72;5068029;28;20098;-39
2023/05/21 00:27:55;;;;;;;9.40;4.82;;;;;;;12.22;100.00;100126.06;5088389;28;20039;-40
2023/05/21 00:30:21;;;;;;;6.82;4.95;;;;;;;12.20;100.00;100117.41;5086855;28;20048;-38
2023/05/21 00:32:47;;;;;;;9.98;4.68;;;;;;;12.21;100.00;100120.88;5069457;28;20044;-39
2023/05/21 00:35:16;;;;;;;8.55;4.90;;;;;;;12.24;100.00;100113.81;5069838;28;20565;-39
2023/05/21 00:37:42;;;;;;;7.20;4.75;;;;;;;12.25;100.00;100110.28;5086927;28;20061;-38
2023/05/21 00:40:10;;;;;;;9.13;4.88;;;;;;;12.26;100.00;100111.13;5079271;28;20119;-39
2023/05/21 00:42:40;;;;;;;7.03;4.35;;;;;;;12.16;100.00;100091.50;5066069;28;20408;-39
2023/05/21 00:45:08;;;;;;;8.85;4.70;;;;;;;12.31;100.00;100112.69;5086422;28;20036;-39
2023/05/21 00:47:34;;;;;;;9.13;4.78;;;;;;;12.35;100.00;100113.44;5068780;28;20040;-39
2023/05/21 00:50:03;;;;;;;6.85;4.13;;;;;;;12.20;99.75;100091.34;5068788;28;20040;-39
2023/05/21 00:52:30;;;;;;;6.55;4.63;;;;;;;12.36;100.00;100112.53;5052034;28;20064;-39
2023/05/21 00:54:56;;;;;;;6.70;4.53;;;;;;;12.31;99.81;100107.47;5069430;28;20412;-39
2023/05/21 00:57:24;;;;;;;6.97;5.05;;;;;;;12.35;99.94;100112.59;5049705;28;20044;-39
2023/05/21 00:59:51;;;;;;;7.72;4.65;;;;;;;12.39;100.00;100115.03;5086422;28;20126;-40
2023/05/21 01:02:17;;;;;;;7.72;4.80;;;;;;;12.42;99.94;100114.06;5068081;28;20507;-39
2023/05/21 01:04:46;;;;;;;7.82;4.95;;;;;;;12.39;99.78;100117.66;5068692;28;20043;-38
2023/05/21 01:07:13;;;;;;;6.18;5.03;;;;;;;12.41;99.19;100112.38;5070053;28;20036;-39
2023/05/21 01:09:40;;;;;;;9.27;5.07;;;;;;;12.29;99.52;100104.09;5070128;28;20067;-38
2023/05/21 01:12:07;;;;;;;6.97;4.97;;;;;;;12.42;99.36;100116.69;5051312;28;20032;-38
2023/05/21 01:14:34;;;;;;;5.75;4.68;;;;;;;12.43;99.31;100113.16;5053358;28;20145;-39
2023/05/21 01:17:01;;;;;;;7.05;5.07;;;;;;;12.45;99.61;100117.44;5068687;28;20091;-39
2023/05/21 01:19:28;;;;;;;6.10;4.70;;;;;;;12.31;99.46;100098.78;5052214;28;20150;-38
2023/05/21 01:22:00;;;;;;;8.18;5.03;;;;;;;12.45;99.69;100111.38;5086029;28;20075;-38
2023/05/21 01:24:26;;;;;;;7.88;5.30;;;;;;;12.48;99.34;100122.53;5069920;28;20047;-39
2023/05/21 01:26:52;;;;;;;8.40;5.13;;;;;;;12.47;99.62;100126.03;5051151;28;20130;-39
2023/05/21 01:29:18;;;;;;;6.20;4.68;;;;;;;12.49;99.40;100115.56;5069570;28;20047;-38
2023/05/21 01:32:04;;;;;;;8.30;5.13;;;;;;;12.52;99.21;100118.91;5087677;28;20052;-38
2023/05/21 01:35:10;;;;;;;6.57;4.88;;;;;;;12.44;99.00;100099.22;5068808;28;20064;-39
2023/05/21 01:37:40;;;;;;;7.95;4.85;;;;;;;12.49;99.17;100111.22;5046198;28;20048;-39
2023/05/21 01:40:22;;;;;;;12.35;4.97;;;;;;;12.49;98.60;100110.34;5069331;28;20063;-38
2023/05/21 01:42:48;;;;;;;8.57;5.13;;;;;;;12.49;98.75;100097.31;5066940;28;20571;-38
2023/05/21 01:45:15;;;;;;;7.72;4.80;;;;;;;12.61;98.31;100117.75;5067357;28;20070;-38
2023/05/21 01:47:44;;;;;;;6.05;4.32;;;;;;;12.62;98.56;100116.81;5069574;28;20032;-39
2023/05/21 01:50:10;;;;;;;4.85;4.25;;;;;;;12.64;98.00;100126.31;5068437;28;20039;-38
2023/05/21 01:52:37;;;;;;;6.95;4.85;;;;;;;12.46;97.55;100084.38;5084682;28;20048;-38
2023/05/21 01:55:03;;;;;;;7.40;4.90;;;;;;;12.55;97.36;100099.72;5052882;28;20048;-38
2023/05/21 01:57:30;;;;;;;7.22;4.93;;;;;;;12.68;97.27;100117.47;5050353;28;20435;-38
2023/05/21 01:59:57;;;;;;;7.40;4.88;;;;;;;12.71;97.19;100113.91;5051642;28;20724;-38
2023/05/21 02:02:22;;;;;;;7.15;4.95;;;;;;;12.70;96.58;100115.66;5036056;28;20504;-38
2023/05/21 02:04:49;;;;;;;11.32;5.10;;;;;;;12.72;96.57;100119.03;5067988;28;20066;-38
2023/05/21 02:07:15;;;;;;;6.72;4.82;;;;;;;12.73;96.66;100119.91;5068641;28;20043;-39
2023/05/21 02:09:42;;;;;;;7.93;5.22;;;;;;;12.74;96.73;100119.84;5091202;28;20042;-38
2023/05/21 02:12:08;;;;;;;8.93;5.60;;;;;;;12.80;96.62;100123.16;5071268;28;20426;-38
2023/05/21 02:14:34;;;;;;;10.55;5.78;;;;;;;12.81;96.50;100120.50;5056367;28;20070;-38
2023/05/21 02:17:00;;;;;;;8.38;5.53;;;;;;;12.81;96.57;100112.66;5055068;28;20598;-38
2023/05/21 02:19:26;;;;;;;8.15;5.93;;;;;;;12.83;96.93;100117.81;5071533;28;20048;-38
2023/05/21 02:21:52;;;;;;;8.18;5.38;;;;;;;12.85;96.66;100116.00;5072023;28;20089;-39
2023/05/21 02:24:18;;;;;;;10.70;5.55;;;;;;;12.86;96.67;100115.94;5068829;28;20052;-39
2023/05/21 02:26:45;;;;;;;10.10;6.15;;;;;;;12.86;96.35;100121.19;5052812;28;20071;-38
2023/05/21 02:29:11;;;;;;;7.28;5.68;;;;;;;12.86;96.29;100112.50;5067279;28;20117;-39
2023/05/21 02:31:37;;;;;;;7.65;5.55;;;;;;;12.87;96.60;100114.19;5070220;28;20094;-39
2023/05/21 02:34:03;;;;;;;7.60;6.03;;;;;;;12.90;96.58;100114.94;5071222;28;20654;-38
2023/05/21 02:36:32;;;;;;;7.13;5.57;;;;;;;12.91;96.28;100102.72;5089552;28;20132;-39
2023/05/21 02:38:58;;;;;;;11.90;6.43;;;;;;;12.79;96.02;100087.53;5069267;28;20043;-39
2023/05/21 02:41:24;;;;;;;8.07;6.20;;;;;;;12.93;95.07;100106.97;5070047;28;20348;-38
2023/05/21 02:43:50;;;;;;;9.30;5.28;;;;;;;12.94;94.73;100111.28;5091875;28;20802;-39
2023/05/21 02:46:17;;;;;;;7.95;6.07;;;;;;;12.98;94.18;100114.66;5061371;28;20156;-38
2023/05/21 02:48:43;;;;;;;8.32;6.32;;;;;;;12.99;93.73;100111.97;5079337;28;20036;-40
2023/05/21 02:51:10;;;;;;;7.78;6.20;;;;;;;13.01;93.72;100109.31;5068397;28;20416;-38
2023/05/21 02:53:36;;;;;;;9.25;6.35;;;;;;;13.02;92.96;100113.63;5050083;28;20056;-38
2023/05/21 02:56:02;;;;;;;11.18;6.32;;;;;;;13.02;92.79;100119.69;5072305;28;20055;-38
2023/05/21 02:58:28;;;;;;;9.25;6.13;;;;;;;13.04;92.87;100124.84;5069615;28;20044;-38
2023/05/21 03:00:54;;;;;;;9.60;6.00;;;;;;;13.05;92.43;100116.97;5071659;28;20036;-39
2023/05/21 03:03:20;;;;;;;8.43;6.00;;;;;;;13.05;91.90;100127.41;5071813;28;20071;-38
2023/05/21 03:05:47;;;;;;;6.85;5.43;;;;;;;13.04;91.47;100119.63;5072073;28;20044;-38
2023/05/21 03:08:13;;;;;;;8.10;5.95;;;;;;;13.02;91.58;100127.53;5059272;28;20097;-38
2023/05/21 03:10:39;;;;;;;8.18;6.15;;;;;;;13.02;91.29;100121.47;5052319;28;20036;-39
2023/05/21 03:13:05;;;;;;;9.35;6.75;;;;;;;13.05;91.33;100124.78;5071196;28;20048;-38
2023/05/21 03:15:32;;;;;;;10.77;6.72;;;;;;;13.09;91.20;100120.31;5070719;28;20104;-39
2023/05/21 03:17:58;;;;;;;8.90;6.57;;;;;;;13.12;91.00;100121.09;5089916;28;20040;-39
2023/05/21 03:20:25;;;;;;;8.80;6.50;;;;;;;13.17;90.87;100122.66;5071540;28;20047;-39
2023/05/21 03:22:51;;;;;;;10.90;7.00;;;;;;;13.20;90.47;100126.00;5054361;28;20039;-39
2023/05/21 03:25:17;;;;;;;11.55;6.30;;;;;;;13.20;90.22;100123.38;5087717;28;20040;-38
2023/05/21 03:27:44;;;;;;;10.32;7.35;;;;;;;13.25;89.88;100131.03;5055108;28;20047;-39
2023/05/21 03:30:30;;;;;;;9.13;6.82;;;;;;;13.27;89.84;100132.72;5072199;28;20675;-38
2023/05/21 03:33:18;;;;;;;8.75;6.60;;;;;;;13.28;89.49;100130.94;5072063;28;20032;-38
2023/05/21 03:35:45;;;;;;;7.22;6.03;;;;;;;13.28;89.40;100123.97;5070661;28;20423;-38
2023/05/21 03:38:11;;;;;;;10.02;6.80;;;;;;;13.32;89.08;100130.78;5071422;28;20568;-38
2023/05/21 03:40:37;;;;;;;10.20;6.88;;;;;;;13.32;88.84;100140.34;5087009;28;20048;-38
2023/05/21 03:43:03;;;;;;;10.45;7.30;;;;;;;13.29;88.55;100132.66;5053481;28;20519;-38
2023/05/21 03:45:29;;;;;;;12.63;7.35;;;;;;;13.29;88.48;100132.66;5070504;28;20039;-38
2023/05/21 03:48:15;;;;;;;11.15;7.05;;;;;;;13.31;88.21;100133.44;5087638;28;20040;-39
2023/05/21 03:50:42;;;;;;;9.20;6.95;;;;;;;13.29;88.29;100130.91;5052488;28;20103;-38
2023/05/21 03:53:09;;;;;;;12.73;7.07;;;;;;;13.29;88.25;100133.50;5070705;28;20052;-39
2023/05/21 03:55:35;;;;;;;11.10;6.55;;;;;;;13.31;87.98;100133.44;5070357;28;20047;-38
2023/05/21 03:58:01;;;;;;;11.05;7.63;;;;;;;13.32;88.05;100127.31;5070676;28;20039;-38
2023/05/21 04:00:27;;;;;;;9.15;6.88;;;;;;;13.25;88.26;100110.16;5050184;28;20040;-39
2023/05/21 04:02:53;;;;;;;10.55;6.85;;;;;;;13.31;88.24;100117.75;5053921;28;20503;-39
2023/05/21 04:05:19;;;;;;;10.10;7.65;;;;;;;13.48;88.22;100133.63;5069310;28;20047;-38
2023/05/21 04:07:45;;;;;;;10.52;7.05;;;;;;;13.56;88.32;100132.41;5070152;28;20557;-37
2023/05/21 04:10:11;;;;;;;9.70;7.25;;;;;;;13.65;87.92;100141.69;5068629;28;20092;-39
2023/05/21 04:12:37;;;;;;;9.15;6.82;;;;;;;13.77;87.39;100127.25;5070548;28;20044;-38
2023/05/21 04:15:04;;;;;;;10.70;7.18;;;;;;;13.92;87.41;100135.31;5087265;28;20085;-37
2023/05/21 04:17:32;;;;;;;9.75;6.55;;;;;;;14.25;86.46;100140.06;5088712;28;20032;-38
2023/05/21 04:19:58;;;;;;;9.93;7.28;;;;;;;14.40;84.69;100110.66;5070623;28;20040;-38
2023/05/21 04:22:25;;;;;;;8.13;6.40;;;;;;;14.50;83.87;100126.84;5069508;28;20051;-38
2023/05/21 04:24:53;;;;;;;8.85;6.72;;;;;;;14.56;82.79;100123.94;5068496;28;20294;-39
2023/05/21 04:27:24;;;;;;;8.73;6.30;;;;;;;14.62;82.07;100121.91;5052603;28;20076;-37
2023/05/21 04:29:53;;;;;;;8.85;6.55;;;;;;;14.63;81.50;100126.25;5046928;28;20086;-40
2023/05/21 04:32:21;;;;;;;9.95;6.30;;;;;;;14.65;81.28;100128.78;5050169;28;20041;-38
2023/05/21 04:34:47;;;;;;;8.27;6.30;;;;;;;14.66;80.77;100127.84;5068050;28;20036;-39
2023/05/21 04:37:16;;;;;;;8.15;6.20;;;;;;;14.63;81.01;100128.00;5054919;28;20048;-39
2023/05/21 04:39:43;;;;;;;9.50;6.38;;;;;;;14.55;80.73;100130.13;5084858;28;20127;-38
2023/05/21 04:42:11;;;;;;;9.07;6.72;;;;;;;14.20;80.56;100089.72;5056925;28;20072;-38
2023/05/21 04:44:39;;;;;;;9.48;6.72;;;;;;;14.34;80.27;100121.41;5045376;28;20132;-38
2023/05/21 04:47:06;;;;;;;11.65;6.25;;;;;;;14.22;80.17;100103.59;5070021;28;20044;-38
2023/05/21 04:49:33;;;;;;;10.90;7.43;;;;;;;14.47;79.64;100125.19;5047207;28;20048;-38
2023/05/21 04:52:01;;;;;;;8.10;6.05;;;;;;;14.61;79.33;100130.69;5009933;28;20144;-40
2023/05/21 04:54:27;;;;;;;9.48;5.75;;;;;;;14.62;78.41;100126.28;5026643;28;20037;-38
2023/05/21 04:56:53;;;;;;;8.98;5.95;;;;;;;14.58;77.99;100128.22;5045923;28;20043;-38
2023/05/21 04:59:20;;;;;;;8.93;5.93;;;;;;;14.32;77.27;100091.81;5028717;28;20045;-38
2023/05/21 05:01:46;;;;;;;7.85;6.55;;;;;;;14.34;77.65;100111.75;5047351;28;20465;-38
2023/05/21 05:04:12;;;;;;;8.40;6.40;;;;;;;14.41;77.86;100135.94;5046400;28;20047;-39
2023/05/21 05:06:38;;;;;;;10.20;6.43;;;;;;;14.37;78.01;100137.84;5045899;28;20044;-39
2023/05/21 05:09:04;;;;;;;10.00;6.15;;;;;;;14.38;77.76;100138.69;5045015;28;20123;-39
2023/05/21 05:11:30;;;;;;;9.35;6.57;;;;;;;14.29;77.68;100111.09;5045475;28;20187;-38
2023/05/21 05:13:57;;;;;;;14.57;8.98;;;;;;;14.61;77.29;100148.13;5029670;28;20585;-39
2023/05/21 05:16:24;;;;;;;9.38;5.68;;;;;;;14.71;76.98;100146.81;5045806;28;20087;-38
2023/05/21 05:18:53;;;;;;;8.48;5.55;;;;;;;14.55;76.28;100098.72;5045036;28;20114;-38
2023/05/21 05:21:21;;;;;;;10.55;6.50;;;;;;;14.88;75.83;100136.47;5046128;28;20110;-38
2023/05/21 05:23:47;;;;;;;7.47;5.30;;;;;;;14.81;74.91;100121.97;5043443;28;20045;-38
2023/05/21 05:26:13;;;;;;;7.15;5.10;;;;;;;14.80;74.10;100122.88;5045197;28;20056;-39
2023/05/21 05:28:39;;;;;;;6.38;4.85;;;;;;;14.94;73.65;100143.19;5044866;28;20068;-39
2023/05/21 05:31:05;;;;;;;6.65;5.03;;;;;;;14.95;73.46;100148.38;5029046;28;20131;-38
2023/05/21 05:33:32;;;;;;;7.80;5.32;;;;;;;14.94;73.55;100154.53;5046534;28;20512;-38
2023/05/21 05:35:58;;;;;;;7.43;5.68;;;;;;;14.79;73.28;100124.66;5027602;28;20408;-40
2023/05/21 05:38:25;;;;;;;9.43;5.63;;;;;;;14.77;73.01;100130.84;5044594;28;20040;-40
2023/05/21 05:40:50;;;;;;;9.82;5.90;;;;;;;14.75;72.94;100115.25;5029294;28;20094;-38
2023/05/21 05:43:16;;;;;;;9.35;5.75;;;;;;;15.02;72.83;100162.06;5044793;28;20562;-39
2023/05/21 05:45:43;;;;;;;8.45;5.50;;;;;;;14.99;72.57;100152.53;5048240;28;20072;-43
2023/05/21 05:48:12;;;;;;;;;;;;;;;14.94;72.62;100156.28;5049464;28;20049;-38
2023/05/21 05:50:38;;;;;;;7.97;4.38;;;;;;;14.81;72.50;100150.75;5049099;28;19982;-38
2023/05/21 05:53:06;;;;;;;5.03;3.95;;;;;;;14.87;71.32;100157.47;5047877;28;20084;-38
2023/05/21 05:55:32;;;;;;;7.80;4.20;;;;;;;14.97;70.35;100158.78;5049635;28;20504;-38
2023/05/21 05:57:58;;;;;;;6.57;4.03;;;;;;;15.09;69.90;100164.31;5045652;28;20077;-39
2023/05/21 06:00:25;;;;;;;8.80;4.22;;;;;;;15.25;69.39;100167.09;5036046;28;20033;-39
2023/05/21 06:02:51;;;;;;;8.63;5.53;;;;;;;15.44;68.51;100165.31;5031858;28;20044;-38
2023/05/21 06:05:17;;;;;;;5.25;3.97;;;;;;;15.61;67.85;100167.16;5033184;28;20163;-39
2023/05/21 06:07:43;;;;;;;6.47;3.85;;;;;;;15.60;67.39;100165.47;5031117;28;20136;-39
2023/05/21 06:10:09;;;;;;;5.65;4.18;;;;;;;15.49;67.00;100165.94;5048552;28;20041;-40
2023/05/21 06:12:35;;;;;;;6.03;4.05;;;;;;;15.42;67.51;100172.41;5037040;28;20045;-39
2023/05/21 06:15:01;;;;;;;5.88;3.60;;;;;;;15.37;67.57;100169.16;5014621;28;20041;-38
2023/05/21 06:17:32;;;;;;;5.63;4.05;;;;;;;15.37;67.49;100165.69;5048846;28;20049;-40
2023/05/21 06:19:59;;;;;;;6.40;3.75;;;;;;;15.32;67.40;100144.06;5048094;28;20075;-38
2023/05/21 06:22:28;;;;;;;5.10;3.78;;;;;;;15.56;66.93;100163.91;5032997;28;20048;-40
2023/05/21 06:24:54;;;;;;;4.28;3.47;;;;;;;15.65;66.36;100142.50;5043809;28;20048;-39
2023/05/21 06:27:20;;;;;;;5.78;4.50;;;;;;;16.00;65.68;100157.41;5048527;28;20451;-39
2023/05/21 06:29:48;;;;;;;5.85;4.05;;;;;;;16.30;65.35;100146.31;5048990;28;20048;-39
2023/05/21 06:32:14;;;;;;;4.65;3.30;;;;;;;16.86;63.84;100162.63;5050029;28;20041;-38
2023/05/21 06:34:40;;;;;;;4.75;3.05;;;;;;;17.51;60.70;100149.50;5049237;28;20512;-39
2023/05/21 06:37:06;;;;;;;3.50;2.80;;;;;;;18.49;57.82;100135.06;5052438;28;20123;-39
2023/05/21 06:39:32;;;;;;;7.20;2.55;;;;;;;19.80;54.67;100155.00;5046740;28;20036;-39
2023/05/21 06:41:58;;;;;;;3.95;3.00;;;;;;;20.21;52.95;100161.97;5063153;28;20048;-39
2023/05/21 06:44:50;;;;;;;4.07;3.10;;;;;;;19.89;52.55;100138.56;5049368;28;20103;-35
2023/05/21 06:47:24;;;;;;;3.35;3.00;;;;;;;20.33;51.54;100158.56;5047956;28;20424;-36
2023/05/21 06:49:50;;;;;;;5.45;3.00;;;;;;;20.59;50.50;100160.31;5048551;28;20037;-38
2023/05/21 06:52:16;;;;;;;4.68;2.90;;;;;;;20.64;49.71;100154.69;5053771;28;20058;-37
2023/05/21 06:54:43;;;;;;;3.45;2.40;;;;;;;21.60;47.50;100158.53;5068420;28;20091;-36
2023/05/21 06:57:09;;;;;;;3.42;2.63;;;;;;;22.42;46.19;100149.78;5069290;28;20042;-45
2023/05/21 06:59:35;;;;;;;6.43;4.30;;;;;;;24.37;42.78;100157.97;5068575;28;20044;-36
2023/05/21 07:02:02;;;;;;;3.13;2.78;;;;;;;26.01;40.06;100167.50;5067549;28;20036;-36
2023/05/21 07:04:28;;;;;;;3.83;2.67;;;;;;;25.98;38.59;100164.28;5068833;28;20097;-36
2023/05/21 07:06:54;;;;;;;3.58;2.78;;;;;;;26.29;38.20;100157.00;5033958;28;20094;-36
2023/05/21 07:09:22;;;;;;;4.35;2.50;;;;;;;25.24;39.14;100169.97;5051532;28;20498;-36
2023/05/21 07:11:48;;;;;;;5.55;2.95;;;;;;;23.87;40.14;100151.47;5075472;28;20047;-36
2023/05/21 07:14:15;;;;;;;3.90;2.60;;;;;;;22.89;41.30;100157.59;5062445;28;20130;-37
2023/05/21 07:16:41;;;;;;;3.83;2.85;;;;;;;22.37;42.39;100158.91;5072023;28;20147;-37
2023/05/21 07:19:07;;;;;;;3.63;2.50;;;;;;;22.57;42.28;100157.41;5073665;28;20783;-36
2023/05/21 07:21:33;;;;;;;6.05;2.40;;;;;;;24.42;39.65;100149.59;5041014;28;20474;-38
2023/05/21 07:24:00;;;;;;;4.82;2.50;;;;;;;25.50;37.11;100159.66;5061538;28;20158;-37
2023/05/21 07:26:26;;;;;;;3.45;2.63;;;;;;;26.13;35.85;100155.72;5077401;28;20050;-37
2023/05/21 07:28:52;;;;;;;4.88;2.75;;;;;;;25.02;37.29;100164.81;5063299;28;20424;-37
2023/05/21 07:31:18;;;;;;;5.50;2.30;;;;;;;23.88;38.63;100163.81;5074951;28;20501;-36
2023/05/21 07:33:47;;;;;;;3.60;2.50;;;;;;;22.89;39.92;100148.81;5078738;28;20139;-37
2023/05/21 07:36:15;;;;;;;4.30;2.70;;;;;;;22.22;40.93;100157.44;5057717;28;20044;-37
2023/05/21 07:38:43;;;;;;;4.47;3.80;;;;;;;21.74;41.79;100121.31;5077850;28;20432;-37
2023/05/21 07:41:09;;;;;;;3.90;3.30;;;;;;;21.83;42.19;100161.19;5047754;28;20058;-36
2023/05/21 07:43:35;;;;;;;3.35;2.88;;;;;;;21.68;42.78;100158.81;5066401;28;20547;-37
2023/05/21 07:46:01;;;;;;;3.17;2.80;;;;;;;21.29;43.18;100158.09;5068932;28;20094;-37
2023/05/21 07:48:27;;;;;;;5.80;4.20;;;;;;;20.92;44.09;100154.50;5066609;28;20774;-37
2023/05/21 07:50:57;;;;;;;4.43;3.20;;;;;;;20.67;44.81;100157.97;5067275;28;20470;-37
2023/05/21 07:53:23;;;;;;;6.30;3.20;;;;;;;20.68;45.17;100158.81;5040911;28;20096;-38
2023/05/21 07:55:50;;;;;;;5.57;3.00;;;;;;;23.33;41.55;100151.47;5012495;28;20033;-37
2023/05/21 07:58:22;;;;;;;4.18;2.90;;;;;;;26.19;37.25;100148.13;5030026;28;20455;-38
2023/05/21 08:00:49;;;;;;;4.72;2.60;;;;;;;27.53;35.10;100152.34;5047822;28;20057;-37
2023/05/21 08:03:17;;;;;;;4.15;3.00;;;;;;;27.83;33.80;100154.66;5051968;28;20095;-38
2023/05/21 08:05:47;;;;;;;4.82;2.80;;;;;;;29.64;31.68;100147.56;5038358;28;20500;-37
2023/05/21 08:08:15;;;;;;;4.78;2.80;;;;;;;30.71;30.00;100137.59;5030806;28;20079;-37
2023/05/21 08:10:41;;;;;;;3.88;2.70;;;;;;;30.57;29.75;100149.00;5026489;28;20500;-37
2023/05/21 08:13:07;;;;;;;4.22;2.90;;;;;;;29.63;29.66;100135.16;5044823;28;20090;-38
2023/05/21 08:15:33;;;;;;;4.75;2.92;;;;;;;28.65;30.40;100139.16;5051307;28;20107;-38
2023/05/21 08:17:59;;;;;;;3.97;3.10;;;;;;;29.54;29.47;100151.38;5053980;28;20513;-38
2023/05/21 08:20:25;;;;;;;5.78;2.75;;;;;;;30.34;28.32;100136.44;5033861;28;20037;-37
2023/05/21 08:22:52;;;;;;;3.92;2.90;;;;;;;29.85;28.71;100141.72;5047500;28;20045;-36
2023/05/21 08:25:19;;;;;;;4.15;3.08;;;;;;;29.56;28.59;100125.25;5046945;28;20048;-36
2023/05/21 08:27:45;;;;;;;4.63;3.20;;;;;;;29.90;28.18;100142.09;5048474;28;20136;-37
2023/05/21 08:30:11;;;;;;;4.35;3.00;;;;;;;29.02;29.16;100148.78;5056834;28;20115;-36
2023/05/21 08:32:38;;;;;;;9.20;6.78;;;;;;;28.81;29.74;100140.31;5051556;28;20098;-37
2023/05/21 08:35:04;;;;;;;4.70;3.70;;;;;;;30.02;28.46;100142.63;5029832;28;20499;-35
2023/05/21 08:37:51;;;;;;;5.45;3.25;;;;;;;32.32;26.50;100137.00;5036119;28;20102;-36
2023/05/21 08:40:25;;;;;;;3.47;2.63;;;;;;;33.41;24.77;100129.09;5041301;28;20124;-36
2023/05/21 08:42:51;;;;;;;5.22;3.20;;;;;;;34.56;23.58;100156.88;5046828;28;20114;-35
2023/05/21 08:45:36;;;;;;;3.78;2.53;;;;;;;35.33;22.06;100128.91;5023681;28;20153;-35
2023/05/21 08:48:03;;;;;;;4.65;2.97;;;;;;;35.23;21.46;100149.03;5010198;28;20049;-37
2023/05/21 08:50:32;;;;;;;6.60;4.40;;;;;;;34.61;21.78;100151.72;5041540;28;20124;-35
2023/05/21 08:53:02;;;;;;;4.25;2.75;;;;;;;34.18;22.15;100126.59;5045613;28;20063;-36
2023/05/21 08:55:28;;;;;;;3.38;3.08;;;;;;;35.08;21.69;100133.94;5023735;28;20083;-38
2023/05/21 08:57:54;;;;;;;4.00;2.80;;;;;;;35.98;21.23;100145.34;5044578;28;20044;-36
2023/05/21 09:00:21;;;;;;;3.33;2.65;;;;;;;36.14;20.28;100146.00;5032106;28;20178;-36
2023/05/21 09:02:49;;;;;;;4.90;2.83;;;;;;;35.69;21.01;100148.44;5035088;28;20052;-36
2023/05/21 09:05:18;;;;;;;3.15;2.85;;;;;;;34.55;21.75;100138.16;5039958;28;20132;-38
2023/05/21 09:08:11;;;;;;;7.22;2.90;;;;;;;32.94;22.85;100137.56;5055562;28;20538;-35
2023/05/21 09:10:53;;;;;;;6.85;3.00;;;;;;;33.60;23.05;100138.47;5036941;28;20155;-38
2023/05/21 09:13:24;;;;;;;4.85;2.42;;;;;;;34.67;20.72;100150.09;5033230;28;20037;-40
2023/05/21 09:15:50;;;;;;;4.28;2.28;;;;;;;33.59;21.04;100147.56;5024794;28;20053;-37
2023/05/21 09:18:18;;;;;;;2.88;2.55;;;;;;;32.15;22.00;100130.91;5040781;28;20578;-37
2023/05/21 09:20:52;;;;;;;3.22;2.13;;;;;;;33.53;21.13;100148.31;5058338;28;20045;-37
2023/05/21 09:23:19;;;;;;;3.80;2.45;;;;;;;33.54;21.00;100147.31;5058967;28;20041;-37
2023/05/21 09:25:47;;;;;;;3.05;2.72;;;;;;;32.95;21.78;100141.94;5046316;28;20056;-39
2023/05/21 09:28:21;;;;;;;3.80;3.17;;;;;;;34.88;20.23;100141.94;5038441;28;20032;-36
2023/05/21 09:30:48;;;;;;;7.90;2.70;;;;;;;34.21;20.29;100141.63;5035587;28;20064;-37
2023/05/21 09:33:25;;;;;;;2.30;2.10;;;;;;;31.79;21.66;100143.25;5049298;28;20037;-36
2023/05/21 09:35:52;;;;;;;2.78;2.42;;;;;;;29.64;24.37;100139.50;5049966;28;20079;-37
2023/05/21 09:38:22;;;;;;;5.80;2.90;;;;;;;28.97;26.04;100145.75;5054609;28;20832;-38
2023/05/21 09:40:48;;;;;;;4.05;3.00;;;;;;;28.65;26.52;100139.16;5049282;28;20052;-37
2023/05/21 09:43:16;;;;;;;3.65;2.65;;;;;;;31.63;23.77;100144.19;5033033;28;20520;-37
2023/05/21 09:45:52;;;;;;;6.15;2.25;;;;;;;31.77;23.43;100148.78;5041127;28;20045;-43
2023/05/21 09:48:39;;;;;;;3.38;3.08;;;;;;;29.98;25.10;100146.66;5058160;28;20044;-55
2023/05/21 09:51:17;;;;;;;3.90;2.47;;;;;;;30.02;24.07;100140.78;5032020;28;20048;-40
2023/05/21 09:53:51;;;;;;;3.63;2.90;;;;;;;31.06;23.19;100139.03;5074871;28;20057;-38
2023/05/21 09:56:23;;;;;;;10.18;2.95;;;;;;;32.47;21.68;100137.03;5048967;28;20060;-38
2023/05/21 09:58:56;;;;;;;2.83;2.53;;;;;;;34.31;20.46;100126.75;5050092;28;20051;-37
2023/05/21 10:01:26;;;;;;;3.63;2.90;;;;;;;33.24;21.09;100124.94;5051701;28;20589;-36
2023/05/21 10:04:06;;;;;;;3.65;2.90;;;;;;;31.59;23.50;100133.97;5049893;28;20040;-45
2023/05/21 10:06:36;;;;;;;4.13;2.75;;;;;;;30.34;24.50;100133.75;5031364;28;20045;-36
2023/05/21 10:09:06;;;;;;;3.53;2.78;;;;;;;29.15;26.03;100137.66;5050533;28;20385;-37
2023/05/21 10:11:32;;;;;;;3.38;2.97;;;;;;;28.26;26.62;100134.38;5049234;28;20822;-39
2023/05/21 10:14:25;;;;;;;3.55;3.15;;;;;;;27.64;27.15;100128.06;5015234;28;20040;-35
2023/05/21 10:16:51;;;;;;;5.35;4.60;;;;;;;27.03;28.11;100130.47;5045613;28;20049;-36
2023/05/21 10:19:18;;;;;;;4.35;3.92;;;;;;;27.61;27.94;100128.38;5054763;28;20128;-36
2023/05/21 10:21:44;;;;;;;5.40;3.50;;;;;;;30.41;25.40;100127.53;5033693;28;20036;-36
2023/05/21 10:24:11;;;;;;;3.85;2.88;;;;;;;31.59;23.84;100128.59;5051440;28;20416;-35
2023/05/21 10:26:37;;;;;;;3.97;3.47;;;;;;;32.17;23.21;100133.41;5048013;28;20664;-37
2023/05/21 10:29:03;;;;;;;3.47;2.70;;;;;;;31.42;22.12;100107.13;5011380;28;20131;-35
2023/05/21 10:31:31;;;;;;;3.10;2.80;;;;;;;30.53;22.83;100123.53;5049104;28;20546;-37
2023/05/21 10:33:59;;;;;;;2.85;2.28;;;;;;;29.20;23.67;100129.97;5043367;28;20041;-37
2023/05/21 10:36:29;;;;;;;3.97;2.72;;;;;;;27.59;25.42;100120.50;5044609;28;20071;-36
2023/05/21 10:38:56;;;;;;;3.95;2.80;;;;;;;26.39;26.82;100120.50;5054077;28;20504;-37
2023/05/21 10:41:22;;;;;;;4.22;2.70;;;;;;;25.45;28.17;100121.97;5057724;28;20091;-36
2023/05/21 10:44:13;;;;;;;4.28;2.97;;;;;;;25.11;28.51;100115.28;5064981;28;20110;-36
2023/05/21 10:47:08;;;;;;;4.28;2.70;;;;;;;25.13;28.91;100110.66;5054410;28;20288;-36
2023/05/21 10:49:40;;;;;;;4.13;2.72;;;;;;;27.17;27.37;100111.28;5053196;28;20048;-36
2023/05/21 10:52:26;;;;;;;6.72;2.95;;;;;;;30.55;24.26;100110.78;5047585;28;20049;-36
2023/05/21 10:55:03;;;;;;;2.30;2.10;;;;;;;31.36;22.84;100123.13;5054384;28;20044;-37
2023/05/21 10:57:56;;;;;;;3.67;2.40;;;;;;;30.17;23.59;100114.97;5057328;28;20102;-35
2023/05/21 11:00:23;;;;;;;3.10;2.65;;;;;;;28.65;25.19;100120.44;5035368;28;20472;-36
2023/05/21 11:02:51;;;;;;;3.25;2.45;;;;;;;28.21;25.50;100124.16;5052315;28;20032;-36
2023/05/21 11:05:40;;;;;;;9.68;2.38;;;;;;;27.75;25.45;100128.69;5054170;28;20044;-34
2023/05/21 11:08:20;;;;;;;6.05;2.70;;;;;;;25.91;27.09;100110.69;5072563;28;20068;-35
2023/05/21 11:10:59;;;;;;;4.15;2.45;;;;;;;24.83;28.86;100116.81;5049099;28;20065;-36
2023/05/21 11:13:26;;;;;;;5.15;3.03;;;;;;;24.00;30.53;100122.97;5046912;28;20075;-35
2023/05/21 11:16:01;;;;;;;5.35;2.95;;;;;;;23.17;32.09;100119.16;5055935;28;20420;-35
2023/05/21 11:18:37;;;;;;;4.95;3.25;;;;;;;22.72;33.02;100126.25;5060244;28;20052;-34
2023/05/21 11:21:04;;;;;;;3.45;3.10;;;;;;;22.53;33.17;100126.81;5051809;28;20044;-36
2023/05/21 11:23:49;;;;;;;4.07;3.50;;;;;;;22.55;33.06;100116.94;5049605;28;20044;-37
2023/05/21 11:26:26;;;;;;;5.28;3.35;;;;;;;22.28;33.70;100074.84;5044114;28;20053;-35
2023/05/21 11:29:04;;;;;;;5.15;3.42;;;;;;;22.49;33.80;100122.69;5048257;28;20575;-35
2023/05/21 11:31:38;;;;;;;5.60;3.53;;;;;;;22.20;34.41;100111.66;5050685;28;20583;-36